sensor_id;sensor_type;location;lat;lon;timestamp;temperature;humidity
21039;DHT22;10678;51.002;4.786;2022-12-18T00:01:35;-4.50;99.90
21039;DHT22;10678;51.002;4.786;2022-12-18T00:04:03;-4.50;99.90
21039;DHT22;10678;51.002;4.786;2022-12-18T00:06:30;-4.60;99.90
21039;DHT22;10678;51.002;4.786;2022-12-18T00:08:57;-4.60;99.90
21039;DHT22;10678;51.002;4.786;2022-12-18T00:11:26;-4.60;99.90
21039;DHT22;10678;51.002;4.786;2022-12-18T00:13:54;-4.50;99.90
21039;DHT22;10678;51.002;4.786;2022-12-18T00:16:22;-4.60;99.90
21039;DHT22;10678;51.002;4.786;2022-12-18T00:18:49;-4.60;99.90
21039;DHT22;10678;51.002;4.786;2022-12-18T00:21:15;-4.60;99.90
21039;DHT22;10678;51.002;4.786;2022-12-18T00:23:43;-4.60;99.90
21039;DHT22;10678;51.002;4.786;2022-12-18T00:26:14;-4.70;99.90
21039;DHT22;10678;51.002;4.786;2022-12-18T00:28:40;-4.70;99.90
21039;DHT22;10678;51.002;4.786;2022-12-18T00:31:09;-4.80;99.90
21039;DHT22;10678;51.002;4.786;2022-12-18T00:33:36;-4.80;99.90
21039;DHT22;10678;51.002;4.786;2022-12-18T00:36:07;-4.90;99.90
21039;DHT22;10678;51.002;4.786;2022-12-18T00:38:33;-5.10;99.90
21039;DHT22;10678;51.002;4.786;2022-12-18T00:40:59;-5.00;99.90
21039;DHT22;10678;51.002;4.786;2022-12-18T00:43:25;-5.10;99.90
21039;DHT22;10678;51.002;4.786;2022-12-18T00:45:50;-5.30;99.90
21039;DHT22;10678;51.002;4.786;2022-12-18T00:48:16;-5.20;99.90
21039;DHT22;10678;51.002;4.786;2022-12-18T00:50:42;-5.20;99.90
21039;DHT22;10678;51.002;4.786;2022-12-18T00:53:07;-5.20;99.90
21039;DHT22;10678;51.002;4.786;2022-12-18T00:55:33;-5.20;99.90
21039;DHT22;10678;51.002;4.786;2022-12-18T00:57:58;-5.20;99.90
21039;DHT22;10678;51.002;4.786;2022-12-18T01:00:24;-5.20;99.90
21039;DHT22;10678;51.002;4.786;2022-12-18T01:02:50;-5.20;99.90
21039;DHT22;10678;51.002;4.786;2022-12-18T01:05:16;-5.30;99.90
21039;DHT22;10678;51.002;4.786;2022-12-18T01:07:41;-5.40;99.90
21039;DHT22;10678;51.002;4.786;2022-12-18T01:10:09;-5.30;99.90
21039;DHT22;10678;51.002;4.786;2022-12-18T01:12:35;-5.40;99.90
21039;DHT22;10678;51.002;4.786;2022-12-18T01:15:01;-5.40;99.90
21039;DHT22;10678;51.002;4.786;2022-12-18T01:17:27;-5.30;99.90
21039;DHT22;10678;51.002;4.786;2022-12-18T01:19:52;-5.40;99.90
21039;DHT22;10678;51.002;4.786;2022-12-18T01:22:18;-5.40;99.90
21039;DHT22;10678;51.002;4.786;2022-12-18T01:24:44;-5.30;99.90
21039;DHT22;10678;51.002;4.786;2022-12-18T01:27:09;-5.40;99.90
21039;DHT22;10678;51.002;4.786;2022-12-18T01:29:35;-5.40;99.90
21039;DHT22;10678;51.002;4.786;2022-12-18T01:32:00;-5.40;99.90
21039;DHT22;10678;51.002;4.786;2022-12-18T01:34:26;-5.40;99.90
21039;DHT22;10678;51.002;4.786;2022-12-18T01:36:51;-5.40;99.90
21039;DHT22;10678;51.002;4.786;2022-12-18T01:39:18;-5.40;99.90
21039;DHT22;10678;51.002;4.786;2022-12-18T01:41:44;-5.50;99.90
21039;DHT22;10678;51.002;4.786;2022-12-18T01:44:54;-5.40;99.90
21039;DHT22;10678;51.002;4.786;2022-12-18T01:47:39;-5.50;99.90
21039;DHT22;10678;51.002;4.786;2022-12-18T01:50:20;-5.50;99.90
21039;DHT22;10678;51.002;4.786;2022-12-18T01:52:59;-5.60;99.90
21039;DHT22;10678;51.002;4.786;2022-12-18T01:55:28;-5.70;99.90
21039;DHT22;10678;51.002;4.786;2022-12-18T01:57:57;-5.60;99.90
21039;DHT22;10678;51.002;4.786;2022-12-18T02:00:24;-5.70;99.90
21039;DHT22;10678;51.002;4.786;2022-12-18T02:02:51;-5.60;99.90
21039;DHT22;10678;51.002;4.786;2022-12-18T02:05:42;-5.70;99.90
21039;DHT22;10678;51.002;4.786;2022-12-18T02:08:22;-5.70;99.90
21039;DHT22;10678;51.002;4.786;2022-12-18T02:13:32;-5.60;99.90
21039;DHT22;10678;51.002;4.786;2022-12-18T02:16:27;-5.60;99.90
21039;DHT22;10678;51.002;4.786;2022-12-18T02:18:59;-5.70;99.90
21039;DHT22;10678;51.002;4.786;2022-12-18T02:26:53;-5.90;99.90
21039;DHT22;10678;51.002;4.786;2022-12-18T02:29:35;-5.90;99.90
21039;DHT22;10678;51.002;4.786;2022-12-18T02:32:06;-6.00;99.90
21039;DHT22;10678;51.002;4.786;2022-12-18T02:34:36;-5.90;99.90
21039;DHT22;10678;51.002;4.786;2022-12-18T02:37:05;-5.90;99.90
21039;DHT22;10678;51.002;4.786;2022-12-18T02:39:34;-5.90;99.90
21039;DHT22;10678;51.002;4.786;2022-12-18T02:42:01;-5.90;99.90
21039;DHT22;10678;51.002;4.786;2022-12-18T02:44:34;-6.00;99.90
21039;DHT22;10678;51.002;4.786;2022-12-18T02:47:00;-6.10;99.90
21039;DHT22;10678;51.002;4.786;2022-12-18T02:57:56;-6.20;99.90
21039;DHT22;10678;51.002;4.786;2022-12-18T03:00:30;-6.10;99.90
21039;DHT22;10678;51.002;4.786;2022-12-18T03:03:10;-6.10;99.90
21039;DHT22;10678;51.002;4.786;2022-12-18T03:05:50;-6.10;99.90
21039;DHT22;10678;51.002;4.786;2022-12-18T03:08:26;-6.20;99.90
21039;DHT22;10678;51.002;4.786;2022-12-18T03:11:10;-6.30;99.90
21039;DHT22;10678;51.002;4.786;2022-12-18T03:13:52;-6.20;99.90
21039;DHT22;10678;51.002;4.786;2022-12-18T03:16:25;-6.20;99.90
21039;DHT22;10678;51.002;4.786;2022-12-18T03:19:01;-6.30;99.90
21039;DHT22;10678;51.002;4.786;2022-12-18T03:21:33;-6.30;99.90
21039;DHT22;10678;51.002;4.786;2022-12-18T03:24:01;-6.30;99.90
21039;DHT22;10678;51.002;4.786;2022-12-18T03:26:29;-6.20;99.90
21039;DHT22;10678;51.002;4.786;2022-12-18T03:29:06;-6.30;99.90
21039;DHT22;10678;51.002;4.786;2022-12-18T03:31:32;-6.20;99.90
21039;DHT22;10678;51.002;4.786;2022-12-18T03:34:01;-6.20;99.90
21039;DHT22;10678;51.002;4.786;2022-12-18T03:36:30;-6.20;99.90
21039;DHT22;10678;51.002;4.786;2022-12-18T03:38:56;-6.30;99.90
21039;DHT22;10678;51.002;4.786;2022-12-18T03:41:44;-6.30;99.90
21039;DHT22;10678;51.002;4.786;2022-12-18T03:52:32;-6.50;99.90
21039;DHT22;10678;51.002;4.786;2022-12-18T03:55:00;-6.40;99.90
21039;DHT22;10678;51.002;4.786;2022-12-18T03:57:29;-6.40;99.90
21039;DHT22;10678;51.002;4.786;2022-12-18T03:59:59;-6.50;99.90
21039;DHT22;10678;51.002;4.786;2022-12-18T04:02:26;-6.40;99.90
21039;DHT22;10678;51.002;4.786;2022-12-18T04:04:57;-6.50;99.90
21039;DHT22;10678;51.002;4.786;2022-12-18T04:07:24;-6.50;99.90
21039;DHT22;10678;51.002;4.786;2022-12-18T04:09:52;-6.50;99.90
21039;DHT22;10678;51.002;4.786;2022-12-18T04:12:19;-6.40;99.90
21039;DHT22;10678;51.002;4.786;2022-12-18T04:14:44;-6.40;99.90
21039;DHT22;10678;51.002;4.786;2022-12-18T04:17:10;-6.30;99.90
21039;DHT22;10678;51.002;4.786;2022-12-18T04:19:36;-6.40;99.90
21039;DHT22;10678;51.002;4.786;2022-12-18T04:22:01;-6.20;99.90
21039;DHT22;10678;51.002;4.786;2022-12-18T04:24:27;-6.20;99.90
21039;DHT22;10678;51.002;4.786;2022-12-18T04:26:53;-6.10;99.90
21039;DHT22;10678;51.002;4.786;2022-12-18T04:29:19;-6.30;99.90
21039;DHT22;10678;51.002;4.786;2022-12-18T04:31:44;-6.30;99.90
21039;DHT22;10678;51.002;4.786;2022-12-18T04:34:10;-6.30;99.90
21039;DHT22;10678;51.002;4.786;2022-12-18T04:36:35;-6.40;99.90
21039;DHT22;10678;51.002;4.786;2022-12-18T04:39:01;-6.40;99.90
21039;DHT22;10678;51.002;4.786;2022-12-18T04:41:27;-6.40;99.90
21039;DHT22;10678;51.002;4.786;2022-12-18T04:43:52;-6.50;99.90
21039;DHT22;10678;51.002;4.786;2022-12-18T04:46:18;-6.40;99.90
21039;DHT22;10678;51.002;4.786;2022-12-18T04:48:45;-6.50;99.90
21039;DHT22;10678;51.002;4.786;2022-12-18T04:51:12;-6.50;99.90
21039;DHT22;10678;51.002;4.786;2022-12-18T04:53:37;-6.50;99.90
21039;DHT22;10678;51.002;4.786;2022-12-18T04:56:05;-6.50;99.90
21039;DHT22;10678;51.002;4.786;2022-12-18T04:58:31;-6.50;99.90
21039;DHT22;10678;51.002;4.786;2022-12-18T05:00:57;-6.50;99.90
21039;DHT22;10678;51.002;4.786;2022-12-18T05:03:22;-6.50;99.90
21039;DHT22;10678;51.002;4.786;2022-12-18T05:05:51;-6.60;99.90
21039;DHT22;10678;51.002;4.786;2022-12-18T05:08:18;-6.50;99.90
21039;DHT22;10678;51.002;4.786;2022-12-18T05:10:43;-6.50;99.90
21039;DHT22;10678;51.002;4.786;2022-12-18T05:13:09;-6.50;99.90
21039;DHT22;10678;51.002;4.786;2022-12-18T05:15:34;-6.50;99.90
21039;DHT22;10678;51.002;4.786;2022-12-18T05:18:01;-6.40;99.90
21039;DHT22;10678;51.002;4.786;2022-12-18T05:20:28;-6.40;99.90
21039;DHT22;10678;51.002;4.786;2022-12-18T05:22:54;-6.30;99.90
21039;DHT22;10678;51.002;4.786;2022-12-18T05:25:20;-6.30;99.90
21039;DHT22;10678;51.002;4.786;2022-12-18T05:27:46;-6.40;99.90
21039;DHT22;10678;51.002;4.786;2022-12-18T05:30:12;-6.40;99.90
21039;DHT22;10678;51.002;4.786;2022-12-18T05:32:38;-6.40;99.90
21039;DHT22;10678;51.002;4.786;2022-12-18T05:35:06;-6.40;99.90
21039;DHT22;10678;51.002;4.786;2022-12-18T05:37:32;-6.40;99.90
21039;DHT22;10678;51.002;4.786;2022-12-18T05:39:58;-6.50;99.90
21039;DHT22;10678;51.002;4.786;2022-12-18T05:42:23;-6.40;99.90
21039;DHT22;10678;51.002;4.786;2022-12-18T05:44:49;-6.50;99.90
21039;DHT22;10678;51.002;4.786;2022-12-18T05:47:15;-6.50;99.90
21039;DHT22;10678;51.002;4.786;2022-12-18T05:49:41;-6.40;99.90
21039;DHT22;10678;51.002;4.786;2022-12-18T05:52:06;-6.50;99.90
21039;DHT22;10678;51.002;4.786;2022-12-18T05:54:32;-6.60;99.90
21039;DHT22;10678;51.002;4.786;2022-12-18T05:56:58;-6.50;99.90
21039;DHT22;10678;51.002;4.786;2022-12-18T05:59:23;-6.40;99.90
21039;DHT22;10678;51.002;4.786;2022-12-18T06:01:49;-6.40;99.90
21039;DHT22;10678;51.002;4.786;2022-12-18T06:04:15;-6.50;99.90
21039;DHT22;10678;51.002;4.786;2022-12-18T06:06:40;-6.40;99.90
21039;DHT22;10678;51.002;4.786;2022-12-18T06:09:06;-6.50;99.90
21039;DHT22;10678;51.002;4.786;2022-12-18T06:11:34;-6.50;99.90
21039;DHT22;10678;51.002;4.786;2022-12-18T06:14:01;-6.40;99.90
21039;DHT22;10678;51.002;4.786;2022-12-18T06:16:30;-6.30;99.90
21039;DHT22;10678;51.002;4.786;2022-12-18T06:18:57;-6.40;99.90
21039;DHT22;10678;51.002;4.786;2022-12-18T06:21:22;-6.40;99.90
21039;DHT22;10678;51.002;4.786;2022-12-18T06:23:48;-6.40;99.90
21039;DHT22;10678;51.002;4.786;2022-12-18T06:26:14;-6.50;99.90
21039;DHT22;10678;51.002;4.786;2022-12-18T06:28:40;-6.50;99.90
21039;DHT22;10678;51.002;4.786;2022-12-18T06:31:06;-6.70;99.90
21039;DHT22;10678;51.002;4.786;2022-12-18T06:33:32;-6.70;99.90
21039;DHT22;10678;51.002;4.786;2022-12-18T06:36:03;-6.60;99.90
21039;DHT22;10678;51.002;4.786;2022-12-18T06:38:29;-6.50;99.90
21039;DHT22;10678;51.002;4.786;2022-12-18T06:40:56;-6.50;99.90
21039;DHT22;10678;51.002;4.786;2022-12-18T06:43:21;-6.50;99.90
21039;DHT22;10678;51.002;4.786;2022-12-18T06:45:47;-6.50;99.90
21039;DHT22;10678;51.002;4.786;2022-12-18T06:48:20;-6.40;99.90
21039;DHT22;10678;51.002;4.786;2022-12-18T06:50:47;-6.40;99.90
21039;DHT22;10678;51.002;4.786;2022-12-18T06:53:13;-6.40;99.90
21039;DHT22;10678;51.002;4.786;2022-12-18T06:55:38;-6.50;99.90
21039;DHT22;10678;51.002;4.786;2022-12-18T06:58:04;-6.60;99.90
21039;DHT22;10678;51.002;4.786;2022-12-18T07:00:29;-6.50;99.90
21039;DHT22;10678;51.002;4.786;2022-12-18T07:02:55;-6.50;99.90
21039;DHT22;10678;51.002;4.786;2022-12-18T07:05:21;-6.50;99.90
21039;DHT22;10678;51.002;4.786;2022-12-18T07:07:46;-6.50;99.90
21039;DHT22;10678;51.002;4.786;2022-12-18T07:10:12;-6.50;99.90
21039;DHT22;10678;51.002;4.786;2022-12-18T07:12:37;-6.40;99.90
21039;DHT22;10678;51.002;4.786;2022-12-18T07:15:03;-6.50;99.90
21039;DHT22;10678;51.002;4.786;2022-12-18T07:17:29;-6.50;99.90
21039;DHT22;10678;51.002;4.786;2022-12-18T07:19:55;-6.40;99.90
21039;DHT22;10678;51.002;4.786;2022-12-18T07:22:21;-6.50;99.90
21039;DHT22;10678;51.002;4.786;2022-12-18T07:24:47;-6.40;99.90
21039;DHT22;10678;51.002;4.786;2022-12-18T07:27:12;-6.30;99.90
21039;DHT22;10678;51.002;4.786;2022-12-18T07:29:38;-6.30;99.90
21039;DHT22;10678;51.002;4.786;2022-12-18T07:32:04;-6.20;99.90
21039;DHT22;10678;51.002;4.786;2022-12-18T07:34:29;-6.10;99.90
21039;DHT22;10678;51.002;4.786;2022-12-18T07:36:55;-6.10;99.90
21039;DHT22;10678;51.002;4.786;2022-12-18T07:39:20;-6.10;99.90
21039;DHT22;10678;51.002;4.786;2022-12-18T07:41:46;-6.10;99.90
21039;DHT22;10678;51.002;4.786;2022-12-18T07:44:31;-6.10;99.90
21039;DHT22;10678;51.002;4.786;2022-12-18T07:46:57;-6.10;99.90
21039;DHT22;10678;51.002;4.786;2022-12-18T07:49:23;-6.00;99.90
21039;DHT22;10678;51.002;4.786;2022-12-18T07:51:48;-6.00;99.90
21039;DHT22;10678;51.002;4.786;2022-12-18T07:54:14;-6.10;99.90
21039;DHT22;10678;51.002;4.786;2022-12-18T07:56:40;-6.00;99.90
21039;DHT22;10678;51.002;4.786;2022-12-18T07:59:05;-6.00;99.90
21039;DHT22;10678;51.002;4.786;2022-12-18T08:01:31;-6.10;99.90
21039;DHT22;10678;51.002;4.786;2022-12-18T08:03:57;-5.90;99.90
21039;DHT22;10678;51.002;4.786;2022-12-18T08:06:23;-5.80;99.90
21039;DHT22;10678;51.002;4.786;2022-12-18T08:08:53;-5.80;99.90
21039;DHT22;10678;51.002;4.786;2022-12-18T08:11:19;-5.80;99.90
21039;DHT22;10678;51.002;4.786;2022-12-18T08:13:45;-5.70;99.90
21039;DHT22;10678;51.002;4.786;2022-12-18T08:16:10;-5.70;99.90
21039;DHT22;10678;51.002;4.786;2022-12-18T08:18:37;-5.60;99.90
21039;DHT22;10678;51.002;4.786;2022-12-18T08:21:12;-5.40;99.90
21039;DHT22;10678;51.002;4.786;2022-12-18T08:23:39;-5.30;99.90
21039;DHT22;10678;51.002;4.786;2022-12-18T08:26:05;-5.40;99.90
21039;DHT22;10678;51.002;4.786;2022-12-18T08:28:31;-5.20;99.90
21039;DHT22;10678;51.002;4.786;2022-12-18T08:30:56;-5.10;99.90
21039;DHT22;10678;51.002;4.786;2022-12-18T08:33:22;-5.00;99.90
21039;DHT22;10678;51.002;4.786;2022-12-18T08:35:48;-5.00;99.90
21039;DHT22;10678;51.002;4.786;2022-12-18T08:38:13;-4.90;99.90
21039;DHT22;10678;51.002;4.786;2022-12-18T08:40:39;-4.70;99.90
21039;DHT22;10678;51.002;4.786;2022-12-18T08:43:04;-4.40;99.90
21039;DHT22;10678;51.002;4.786;2022-12-18T08:45:49;-4.30;99.90
21039;DHT22;10678;51.002;4.786;2022-12-18T08:48:15;-4.10;99.90
21039;DHT22;10678;51.002;4.786;2022-12-18T08:50:41;-3.90;99.90
21039;DHT22;10678;51.002;4.786;2022-12-18T08:53:06;-3.90;99.90
21039;DHT22;10678;51.002;4.786;2022-12-18T08:55:32;-3.80;99.90
21039;DHT22;10678;51.002;4.786;2022-12-18T08:57:57;-3.60;99.90
21039;DHT22;10678;51.002;4.786;2022-12-18T09:00:24;-3.40;99.90
21039;DHT22;10678;51.002;4.786;2022-12-18T09:02:50;-3.10;99.90
21039;DHT22;10678;51.002;4.786;2022-12-18T09:05:15;-3.00;99.90
21039;DHT22;10678;51.002;4.786;2022-12-18T09:07:41;-3.00;99.90
21039;DHT22;10678;51.002;4.786;2022-12-18T09:10:07;-2.80;99.90
21039;DHT22;10678;51.002;4.786;2022-12-18T09:12:32;-2.60;99.90
21039;DHT22;10678;51.002;4.786;2022-12-18T09:14:58;-2.50;99.90
21039;DHT22;10678;51.002;4.786;2022-12-18T09:17:24;-2.30;99.90
21039;DHT22;10678;51.002;4.786;2022-12-18T09:19:50;-2.20;99.90
21039;DHT22;10678;51.002;4.786;2022-12-18T09:22:15;-2.00;99.90
21039;DHT22;10678;51.002;4.786;2022-12-18T09:24:41;-1.90;99.90
21039;DHT22;10678;51.002;4.786;2022-12-18T09:27:07;-1.70;99.90
21039;DHT22;10678;51.002;4.786;2022-12-18T09:29:32;-1.60;99.90
21039;DHT22;10678;51.002;4.786;2022-12-18T09:31:58;-1.50;99.90
21039;DHT22;10678;51.002;4.786;2022-12-18T09:34:24;-1.40;99.90
21039;DHT22;10678;51.002;4.786;2022-12-18T09:36:49;-1.10;99.90
21039;DHT22;10678;51.002;4.786;2022-12-18T09:39:15;-1.00;99.90
21039;DHT22;10678;51.002;4.786;2022-12-18T09:41:44;-0.90;99.90
21039;DHT22;10678;51.002;4.786;2022-12-18T09:47:08;-0.70;99.90
21039;DHT22;10678;51.002;4.786;2022-12-18T09:49:39;-0.60;99.90
21039;DHT22;10678;51.002;4.786;2022-12-18T09:52:17;-0.70;99.90
21039;DHT22;10678;51.002;4.786;2022-12-18T09:55:03;-0.60;99.90
21039;DHT22;10678;51.002;4.786;2022-12-18T09:57:31;-0.50;99.90
21039;DHT22;10678;51.002;4.786;2022-12-18T10:00:18;-0.50;99.90
21039;DHT22;10678;51.002;4.786;2022-12-18T10:02:44;-0.30;99.90
21039;DHT22;10678;51.002;4.786;2022-12-18T10:10:50;-0.20;99.90
21039;DHT22;10678;51.002;4.786;2022-12-18T10:13:43;0.10;99.90
21039;DHT22;10678;51.002;4.786;2022-12-18T10:16:19;0.00;99.90
21039;DHT22;10678;51.002;4.786;2022-12-18T10:29:38;0.50;99.90
21039;DHT22;10678;51.002;4.786;2022-12-18T10:32:03;0.60;99.90
21039;DHT22;10678;51.002;4.786;2022-12-18T10:34:30;0.70;99.90
21039;DHT22;10678;51.002;4.786;2022-12-18T10:36:56;0.60;99.90
21039;DHT22;10678;51.002;4.786;2022-12-18T10:39:24;0.60;99.90
21039;DHT22;10678;51.002;4.786;2022-12-18T10:41:51;0.50;99.90
21039;DHT22;10678;51.002;4.786;2022-12-18T10:44:23;0.50;99.90
21039;DHT22;10678;51.002;4.786;2022-12-18T10:46:52;0.50;99.90
21039;DHT22;10678;51.002;4.786;2022-12-18T10:49:27;0.60;99.90
21039;DHT22;10678;51.002;4.786;2022-12-18T10:54:56;0.80;99.90
21039;DHT22;10678;51.002;4.786;2022-12-18T11:00:01;0.80;99.90
21039;DHT22;10678;51.002;4.786;2022-12-18T11:02:38;0.80;99.90
21039;DHT22;10678;51.002;4.786;2022-12-18T11:05:24;0.70;99.90
21039;DHT22;10678;51.002;4.786;2022-12-18T11:07:51;0.70;99.90
21039;DHT22;10678;51.002;4.786;2022-12-18T11:10:21;0.90;99.90
21039;DHT22;10678;51.002;4.786;2022-12-18T11:12:47;0.90;99.90
21039;DHT22;10678;51.002;4.786;2022-12-18T11:15:30;0.90;99.90
21039;DHT22;10678;51.002;4.786;2022-12-18T11:17:56;1.00;99.90
21039;DHT22;10678;51.002;4.786;2022-12-18T11:20:30;1.00;99.90
21039;DHT22;10678;51.002;4.786;2022-12-18T11:23:03;1.10;99.90
21039;DHT22;10678;51.002;4.786;2022-12-18T11:25:30;1.30;99.90
21039;DHT22;10678;51.002;4.786;2022-12-18T11:27:59;1.40;99.90
21039;DHT22;10678;51.002;4.786;2022-12-18T11:30:34;1.40;99.90
21039;DHT22;10678;51.002;4.786;2022-12-18T11:33:33;1.50;99.90
21039;DHT22;10678;51.002;4.786;2022-12-18T11:35:55;1.70;99.90
21039;DHT22;10678;51.002;4.786;2022-12-18T11:38:28;1.70;99.90
21039;DHT22;10678;51.002;4.786;2022-12-18T11:44:15;1.90;99.90
21039;DHT22;10678;51.002;4.786;2022-12-18T11:46:48;1.80;99.90
21039;DHT22;10678;51.002;4.786;2022-12-18T11:49:17;1.80;99.90
21039;DHT22;10678;51.002;4.786;2022-12-18T11:52:04;2.00;99.90
21039;DHT22;10678;51.002;4.786;2022-12-18T11:54:34;2.00;99.90
21039;DHT22;10678;51.002;4.786;2022-12-18T12:00:08;1.60;99.90
21039;DHT22;10678;51.002;4.786;2022-12-18T12:07:41;1.70;99.90
21039;DHT22;10678;51.002;4.786;2022-12-18T12:13:10;1.60;99.90
21039;DHT22;10678;51.002;4.786;2022-12-18T12:21:05;1.80;99.90
21039;DHT22;10678;51.002;4.786;2022-12-18T12:34:49;2.20;99.90
21039;DHT22;10678;51.002;4.786;2022-12-18T12:40:17;2.10;99.90
21039;DHT22;10678;51.002;4.786;2022-12-18T12:42:51;2.10;99.90
21039;DHT22;10678;51.002;4.786;2022-12-18T12:46:17;2.20;99.90
21039;DHT22;10678;51.002;4.786;2022-12-18T12:48:51;2.40;99.90
21039;DHT22;10678;51.002;4.786;2022-12-18T12:51:19;2.60;99.90
21039;DHT22;10678;51.002;4.786;2022-12-18T12:53:46;2.60;99.90
21039;DHT22;10678;51.002;4.786;2022-12-18T12:56:15;2.50;99.90
21039;DHT22;10678;51.002;4.786;2022-12-18T12:59:10;2.30;99.90
21039;DHT22;10678;51.002;4.786;2022-12-18T13:04:40;2.60;99.90
21039;DHT22;10678;51.002;4.786;2022-12-18T13:10:12;2.80;99.90
21039;DHT22;10678;51.002;4.786;2022-12-18T13:15:33;2.40;99.90
21039;DHT22;10678;51.002;4.786;2022-12-18T13:23:01;2.70;99.90
21039;DHT22;10678;51.002;4.786;2022-12-18T13:25:44;2.80;99.90
21039;DHT22;10678;51.002;4.786;2022-12-18T13:28:18;2.60;99.90
21039;DHT22;10678;51.002;4.786;2022-12-18T13:30:54;2.50;99.90
21039;DHT22;10678;51.002;4.786;2022-12-18T13:35:53;2.70;99.90
21039;DHT22;10678;51.002;4.786;2022-12-18T13:40:58;2.70;99.90
21039;DHT22;10678;51.002;4.786;2022-12-18T13:43:32;2.80;99.90
21039;DHT22;10678;51.002;4.786;2022-12-18T13:48:36;2.60;99.90
21039;DHT22;10678;51.002;4.786;2022-12-18T13:51:07;2.40;99.90
21039;DHT22;10678;51.002;4.786;2022-12-18T13:53:42;2.40;99.90
21039;DHT22;10678;51.002;4.786;2022-12-18T13:56:08;2.40;99.90
21039;DHT22;10678;51.002;4.786;2022-12-18T13:58:34;2.50;99.90
21039;DHT22;10678;51.002;4.786;2022-12-18T14:01:00;2.50;99.90
21039;DHT22;10678;51.002;4.786;2022-12-18T14:03:28;2.50;99.90
21039;DHT22;10678;51.002;4.786;2022-12-18T14:06:00;2.40;99.90
21039;DHT22;10678;51.002;4.786;2022-12-18T14:08:32;2.40;99.90
21039;DHT22;10678;51.002;4.786;2022-12-18T14:10:58;2.30;99.90
21039;DHT22;10678;51.002;4.786;2022-12-18T14:13:37;2.30;99.90
21039;DHT22;10678;51.002;4.786;2022-12-18T14:16:05;2.10;99.90
21039;DHT22;10678;51.002;4.786;2022-12-18T14:18:44;2.10;99.90
21039;DHT22;10678;51.002;4.786;2022-12-18T14:21:28;2.20;99.90
21039;DHT22;10678;51.002;4.786;2022-12-18T14:24:12;2.20;99.90
21039;DHT22;10678;51.002;4.786;2022-12-18T14:26:39;2.20;99.90
21039;DHT22;10678;51.002;4.786;2022-12-18T14:29:31;2.20;99.90
21039;DHT22;10678;51.002;4.786;2022-12-18T14:32:10;2.20;99.90
21039;DHT22;10678;51.002;4.786;2022-12-18T14:34:36;2.10;99.90
21039;DHT22;10678;51.002;4.786;2022-12-18T14:37:02;2.10;99.90
21039;DHT22;10678;51.002;4.786;2022-12-18T14:39:28;2.30;99.90
21039;DHT22;10678;51.002;4.786;2022-12-18T14:41:53;2.40;99.90
21039;DHT22;10678;51.002;4.786;2022-12-18T14:44:19;2.30;99.90
21039;DHT22;10678;51.002;4.786;2022-12-18T14:46:47;2.10;99.90
21039;DHT22;10678;51.002;4.786;2022-12-18T14:49:33;2.10;99.90
21039;DHT22;10678;51.002;4.786;2022-12-18T14:52:02;2.20;99.90
21039;DHT22;10678;51.002;4.786;2022-12-18T14:54:30;2.00;99.90
21039;DHT22;10678;51.002;4.786;2022-12-18T14:57:14;2.00;99.90
21039;DHT22;10678;51.002;4.786;2022-12-18T14:59:44;1.90;99.90
21039;DHT22;10678;51.002;4.786;2022-12-18T15:04:38;1.80;99.90
21039;DHT22;10678;51.002;4.786;2022-12-18T15:07:19;1.70;99.90
21039;DHT22;10678;51.002;4.786;2022-12-18T15:12:42;1.70;99.90
21039;DHT22;10678;51.002;4.786;2022-12-18T15:20:47;1.60;99.90
21039;DHT22;10678;51.002;4.786;2022-12-18T15:25:46;1.50;99.90
21039;DHT22;10678;51.002;4.786;2022-12-18T15:28:24;1.60;99.90
21039;DHT22;10678;51.002;4.786;2022-12-18T15:36:09;1.70;99.90
21039;DHT22;10678;51.002;4.786;2022-12-18T15:38:34;1.70;99.90
21039;DHT22;10678;51.002;4.786;2022-12-18T15:41:01;1.70;99.90
21039;DHT22;10678;51.002;4.786;2022-12-18T15:43:27;1.50;99.90
21039;DHT22;10678;51.002;4.786;2022-12-18T15:46:10;1.40;99.90
21039;DHT22;10678;51.002;4.786;2022-12-18T15:48:42;1.40;99.90
21039;DHT22;10678;51.002;4.786;2022-12-18T15:51:13;1.60;99.90
21039;DHT22;10678;51.002;4.786;2022-12-18T15:53:40;1.70;99.90
21039;DHT22;10678;51.002;4.786;2022-12-18T15:56:10;1.80;99.90
21039;DHT22;10678;51.002;4.786;2022-12-18T15:58:55;1.80;99.90
21039;DHT22;10678;51.002;4.786;2022-12-18T16:01:21;1.60;99.90
21039;DHT22;10678;51.002;4.786;2022-12-18T16:03:48;1.50;99.90
21039;DHT22;10678;51.002;4.786;2022-12-18T16:06:13;1.50;99.90
21039;DHT22;10678;51.002;4.786;2022-12-18T16:08:39;1.50;99.90
21039;DHT22;10678;51.002;4.786;2022-12-18T16:11:05;1.60;99.90
21039;DHT22;10678;51.002;4.786;2022-12-18T16:13:31;1.50;99.90
21039;DHT22;10678;51.002;4.786;2022-12-18T16:15:57;1.60;99.90
21039;DHT22;10678;51.002;4.786;2022-12-18T16:18:22;1.60;99.90
21039;DHT22;10678;51.002;4.786;2022-12-18T16:20:48;1.50;99.90
21039;DHT22;10678;51.002;4.786;2022-12-18T16:23:14;1.50;99.90
21039;DHT22;10678;51.002;4.786;2022-12-18T16:25:39;1.70;99.90
21039;DHT22;10678;51.002;4.786;2022-12-18T16:28:05;1.80;99.90
21039;DHT22;10678;51.002;4.786;2022-12-18T16:30:31;1.90;99.90
21039;DHT22;10678;51.002;4.786;2022-12-18T16:32:58;2.00;99.90
21039;DHT22;10678;51.002;4.786;2022-12-18T16:35:24;2.10;99.90
21039;DHT22;10678;51.002;4.786;2022-12-18T16:37:50;2.00;99.90
21039;DHT22;10678;51.002;4.786;2022-12-18T16:40:17;2.00;99.90
21039;DHT22;10678;51.002;4.786;2022-12-18T16:42:44;2.10;99.90
21039;DHT22;10678;51.002;4.786;2022-12-18T16:45:16;2.00;99.90
21039;DHT22;10678;51.002;4.786;2022-12-18T16:47:42;2.00;99.90
21039;DHT22;10678;51.002;4.786;2022-12-18T16:50:08;2.00;99.90
21039;DHT22;10678;51.002;4.786;2022-12-18T16:52:35;2.10;99.90
21039;DHT22;10678;51.002;4.786;2022-12-18T16:55:01;2.10;99.90
21039;DHT22;10678;51.002;4.786;2022-12-18T16:57:26;2.10;99.90
21039;DHT22;10678;51.002;4.786;2022-12-18T16:59:52;2.00;99.90
21039;DHT22;10678;51.002;4.786;2022-12-18T17:02:23;2.30;99.90
21039;DHT22;10678;51.002;4.786;2022-12-18T17:04:49;2.40;99.90
21039;DHT22;10678;51.002;4.786;2022-12-18T17:07:17;2.40;99.90
21039;DHT22;10678;51.002;4.786;2022-12-18T17:09:42;2.30;99.90
21039;DHT22;10678;51.002;4.786;2022-12-18T17:12:09;2.20;99.90
21039;DHT22;10678;51.002;4.786;2022-12-18T17:14:36;2.20;99.90
21039;DHT22;10678;51.002;4.786;2022-12-18T17:17:02;2.30;99.90
21039;DHT22;10678;51.002;4.786;2022-12-18T17:19:28;2.40;99.90
21039;DHT22;10678;51.002;4.786;2022-12-18T17:21:54;2.50;99.90
21039;DHT22;10678;51.002;4.786;2022-12-18T17:24:20;2.30;99.90
21039;DHT22;10678;51.002;4.786;2022-12-18T17:26:46;2.30;99.90
21039;DHT22;10678;51.002;4.786;2022-12-18T17:29:15;2.30;99.90
21039;DHT22;10678;51.002;4.786;2022-12-18T17:31:40;2.20;99.90
21039;DHT22;10678;51.002;4.786;2022-12-18T17:34:06;2.20;99.90
21039;DHT22;10678;51.002;4.786;2022-12-18T17:36:32;2.30;99.90
21039;DHT22;10678;51.002;4.786;2022-12-18T17:38:59;2.30;99.90
21039;DHT22;10678;51.002;4.786;2022-12-18T17:41:26;2.30;99.90
21039;DHT22;10678;51.002;4.786;2022-12-18T17:43:53;2.30;99.90
21039;DHT22;10678;51.002;4.786;2022-12-18T17:46:20;2.30;99.90
21039;DHT22;10678;51.002;4.786;2022-12-18T17:48:45;2.20;99.90
21039;DHT22;10678;51.002;4.786;2022-12-18T17:51:11;2.20;99.90
21039;DHT22;10678;51.002;4.786;2022-12-18T17:53:38;2.30;99.90